createdAt,value
2023-03-04T00:00:59.723Z,11.75
2023-03-04T00:03:27.961Z,12.05
2023-03-04T00:05:56.120Z,11.15
2023-03-04T00:08:24.240Z,12.52
2023-03-04T00:10:52.396Z,11.02
2023-03-04T00:13:21.990Z,10.48
2023-03-04T00:15:50.197Z,11.07
2023-03-04T00:18:21.111Z,10.15
2023-03-04T00:20:49.985Z,10.88
2023-03-04T00:23:18.395Z,10.45
2023-03-04T00:25:46.543Z,10.10
2023-03-04T00:28:14.658Z,10.27
2023-03-04T00:30:42.765Z,9.57
2023-03-04T00:33:10.893Z,9.90
2023-03-04T00:35:40.481Z,10.65
2023-03-04T00:38:08.881Z,9.35
2023-03-04T00:40:37.050Z,9.20
2023-03-04T00:43:05.265Z,8.68
2023-03-04T00:45:33.480Z,9.68
2023-03-04T00:48:01.704Z,9.20
2023-03-04T00:50:29.884Z,8.77
2023-03-04T00:52:59.515Z,8.40
2023-03-04T00:55:27.729Z,8.75
2023-03-04T00:57:56.126Z,8.25
2023-03-04T01:00:24.476Z,8.95
2023-03-04T01:02:52.719Z,8.25
2023-03-04T01:05:21.075Z,8.60
2023-03-04T01:07:49.364Z,7.95
2023-03-04T01:10:19.410Z,8.13
2023-03-04T01:15:16.170Z,7.68
2023-03-04T01:17:44.525Z,7.88
2023-03-04T01:20:13.611Z,7.97
2023-03-04T01:22:41.917Z,7.93
2023-03-04T01:25:10.965Z,7.32
2023-03-04T01:27:40.567Z,7.47
2023-03-04T01:30:09.973Z,7.68
2023-03-04T01:32:38.199Z,7.45
2023-03-04T01:35:07.252Z,7.20
2023-03-04T01:37:35.771Z,6.93
2023-03-04T01:40:05.537Z,6.95
2023-03-04T01:42:36.592Z,7.38
2023-03-04T01:45:07.982Z,6.68
2023-03-04T01:47:36.743Z,6.53
2023-03-04T01:50:06.807Z,6.25
2023-03-04T01:55:03.353Z,6.78
2023-03-04T01:57:37.393Z,7.22
2023-03-04T02:00:26.863Z,6.88
2023-03-04T02:02:58.614Z,6.60
2023-03-04T02:05:27.170Z,6.43
2023-03-04T02:07:57.434Z,6.38
2023-03-04T02:10:26.410Z,6.55
2023-03-04T02:12:55.232Z,5.78
2023-03-04T02:15:25.018Z,6.65
2023-03-04T02:17:53.299Z,5.88
2023-03-04T02:20:33.826Z,5.65
2023-03-04T02:23:10.435Z,6.43
2023-03-04T02:25:44.343Z,6.22
2023-03-04T02:28:14.039Z,5.72
2023-03-04T02:30:42.332Z,6.18
2023-03-04T02:33:18.063Z,5.80
2023-03-04T02:35:47.379Z,6.15
2023-03-04T02:38:15.678Z,5.60
2023-03-04T02:40:47.889Z,4.95
2023-03-04T02:43:17.631Z,5.80
2023-03-04T02:45:47.700Z,6.00
2023-03-04T02:48:18.956Z,6.00
2023-03-04T02:50:49.165Z,5.55
2023-03-04T02:53:18.107Z,5.93
2023-03-04T02:55:46.494Z,5.10
2023-03-04T02:58:15.742Z,5.45
2023-03-04T03:00:45.270Z,5.97
2023-03-04T03:03:13.716Z,5.25
2023-03-04T03:05:42.198Z,4.85
2023-03-04T03:08:10.358Z,5.60
2023-03-04T03:10:38.494Z,5.18
2023-03-04T03:13:06.680Z,4.60
2023-03-04T03:15:34.921Z,5.00
2023-03-04T03:18:04.451Z,5.25
2023-03-04T03:20:32.603Z,5.03
2023-03-04T03:23:00.775Z,5.15
2023-03-04T03:25:28.951Z,4.72
2023-03-04T03:27:57.106Z,4.82
2023-03-04T03:30:25.292Z,4.95
2023-03-04T03:32:53.447Z,4.53
2023-03-04T03:35:23.173Z,4.53
2023-03-04T03:37:51.341Z,4.60
2023-03-04T03:40:19.787Z,4.88
2023-03-04T03:42:47.921Z,4.88
2023-03-04T03:45:16.290Z,4.53
2023-03-04T03:47:44.412Z,4.97
2023-03-04T03:50:13.233Z,4.20
2023-03-04T03:52:42.760Z,4.57
2023-03-04T03:55:11.344Z,4.95
2023-03-04T03:57:39.507Z,4.30
2023-03-04T04:00:09.315Z,4.60
2023-03-04T04:02:37.480Z,4.45
2023-03-04T04:05:06.598Z,4.97
2023-03-04T04:07:34.835Z,4.85
2023-03-04T04:10:04.631Z,4.57
2023-03-04T04:12:33.054Z,4.25
2023-03-04T04:15:01.243Z,4.20
2023-03-04T04:17:29.452Z,4.35
2023-03-04T04:19:57.609Z,4.22
2023-03-04T04:22:25.721Z,4.40
2023-03-04T04:24:53.871Z,4.55
2023-03-04T04:27:23.714Z,4.00
2023-03-04T04:29:51.857Z,4.07
2023-03-04T04:32:20.104Z,4.38
2023-03-04T04:34:48.316Z,4.03
2023-03-04T04:37:16.448Z,4.35
2023-03-04T04:39:44.648Z,4.03
2023-03-04T04:42:13.118Z,3.83
2023-03-04T04:44:42.676Z,4.50
2023-03-04T04:47:11.258Z,3.85
2023-03-04T04:49:39.433Z,3.90
2023-03-04T04:52:07.609Z,4.38
2023-03-04T04:54:35.775Z,4.22
2023-03-04T04:57:03.908Z,3.92
2023-03-04T04:59:32.073Z,4.00
2023-03-04T05:02:01.617Z,3.78
2023-03-04T05:04:29.910Z,3.75
2023-03-04T05:06:58.055Z,3.88
2023-03-04T05:09:26.171Z,4.05
2023-03-04T05:11:54.324Z,4.13
2023-03-04T05:14:22.455Z,3.50
2023-03-04T05:16:52.981Z,3.75
2023-03-04T05:19:22.861Z,3.42
2023-03-04T05:21:51.010Z,3.90
2023-03-04T05:24:19.224Z,3.28
2023-03-04T05:26:47.393Z,3.83
2023-03-04T05:29:15.534Z,3.65
2023-03-04T05:31:43.732Z,3.20
2023-03-04T05:34:11.904Z,3.38
2023-03-04T05:36:41.488Z,3.50
2023-03-04T05:39:09.646Z,3.35
2023-03-04T05:41:37.803Z,3.63
2023-03-04T05:44:06.393Z,3.30
2023-03-04T05:46:34.663Z,3.25
2023-03-04T05:49:02.806Z,3.53
2023-03-04T05:51:30.980Z,3.15
2023-03-04T05:54:00.455Z,2.90
2023-03-04T05:56:30.026Z,3.15
2023-03-04T05:58:59.155Z,2.85
2023-03-04T06:01:27.745Z,3.47
2023-03-04T06:03:56.287Z,3.10
2023-03-04T06:06:24.508Z,3.65
2023-03-04T06:08:52.623Z,2.90
2023-03-04T06:11:22.183Z,3.20
2023-03-04T06:13:50.353Z,2.75
2023-03-04T06:16:18.565Z,3.47
2023-03-04T06:18:46.772Z,2.72
2023-03-04T06:21:15.010Z,3.13
2023-03-04T06:23:44.387Z,3.22
2023-03-04T06:26:15.657Z,2.90
2023-03-04T06:28:46.050Z,3.00
2023-03-04T06:31:14.321Z,2.90
2023-03-04T06:33:42.489Z,2.80
2023-03-04T06:36:10.696Z,2.63
2023-03-04T06:38:38.832Z,3.28
2023-03-04T06:41:10.857Z,2.80
2023-03-04T06:43:39.657Z,2.10
2023-03-04T06:46:10.082Z,2.03
2023-03-04T06:48:38.469Z,2.13
2023-03-04T06:51:08.218Z,2.20
2023-03-04T06:53:37.294Z,2.53
2023-03-04T06:56:05.974Z,1.63
2023-03-04T06:58:34.199Z,1.70
2023-03-04T07:01:13.547Z,2.13
2023-03-04T07:03:42.198Z,1.83
2023-03-04T07:06:11.973Z,2.13
2023-03-04T07:08:40.834Z,1.95
2023-03-04T07:11:09.327Z,1.75
2023-03-04T07:13:38.514Z,2.13
2023-03-04T07:16:07.542Z,1.80
2023-03-04T07:18:37.823Z,1.97
2023-03-04T07:21:06.699Z,1.80
2023-03-04T07:23:35.577Z,2.20
2023-03-04T07:26:04.148Z,1.80
2023-03-04T07:28:32.446Z,1.73
2023-03-04T07:31:10.533Z,1.55
2023-03-04T07:33:40.177Z,1.92
2023-03-04T07:36:08.438Z,1.63
2023-03-04T07:38:36.673Z,1.45
2023-03-04T07:41:04.911Z,1.77
2023-03-04T07:43:33.182Z,1.70
2023-03-04T07:46:02.459Z,1.48
2023-03-04T07:48:30.930Z,1.80
2023-03-04T07:51:11.391Z,2.15
2023-03-04T07:53:42.654Z,1.85
2023-03-04T07:56:13.668Z,1.80
2023-03-04T07:58:41.977Z,1.65
2023-03-04T08:01:11.626Z,1.60
2023-03-04T08:03:40.013Z,1.40
2023-03-04T08:06:11.582Z,1.58
2023-03-04T08:08:40.033Z,1.42
2023-03-04T08:11:09.936Z,1.52
2023-03-04T08:13:38.578Z,1.67
2023-03-04T08:16:07.784Z,1.65
2023-03-04T08:18:36.060Z,0.98
2023-03-04T08:21:04.251Z,1.20
2023-03-04T08:23:33.804Z,1.20
2023-03-04T08:26:06.342Z,1.45
2023-03-04T08:28:34.536Z,1.30
2023-03-04T08:31:02.690Z,1.30
2023-03-04T08:33:30.943Z,0.95
2023-03-04T08:35:59.188Z,1.50
2023-03-04T08:38:27.486Z,1.73
2023-03-04T08:40:57.901Z,1.20
2023-03-04T08:43:27.239Z,1.15
2023-03-04T08:45:55.597Z,1.38
2023-03-04T08:48:24.794Z,1.10
2023-03-04T08:50:54.068Z,1.57
2023-03-04T08:53:22.684Z,1.35
2023-03-04T08:55:52.684Z,1.20
2023-03-04T09:00:51.620Z,1.40
2023-03-04T09:03:20.575Z,1.20
2023-03-04T09:05:49.384Z,1.38
2023-03-04T09:08:17.959Z,1.70
2023-03-04T09:10:46.642Z,1.13
2023-03-04T09:13:16.274Z,1.40
2023-03-04T09:15:48.733Z,1.55
2023-03-04T09:18:17.800Z,1.00
2023-03-04T09:20:46.273Z,1.17
2023-03-04T09:23:14.988Z,1.27
2023-03-04T09:25:44.527Z,0.88
2023-03-04T09:28:13.306Z,1.27
2023-03-04T09:30:41.716Z,1.10
2023-03-04T09:33:11.557Z,1.13
2023-03-04T09:35:39.766Z,1.52
2023-03-04T09:38:08.446Z,1.27
2023-03-04T09:40:42.215Z,1.10
2023-03-04T09:43:21.901Z,1.15
2023-03-04T09:45:52.954Z,1.45
2023-03-04T09:48:26.121Z,1.35
2023-03-04T09:51:06.755Z,1.20
2023-03-04T09:53:42.035Z,1.63
2023-03-04T09:56:12.741Z,1.10
2023-03-04T09:58:49.818Z,1.52
2023-03-04T10:01:23.436Z,1.80
2023-03-04T10:03:55.997Z,1.80
2023-03-04T10:06:24.783Z,1.67
2023-03-04T10:08:57.452Z,1.55
2023-03-04T10:11:28.873Z,1.65
2023-03-04T10:14:13.108Z,1.55
2023-03-04T10:16:45.713Z,1.92
2023-03-04T10:19:35.717Z,1.45
2023-03-04T10:22:13.727Z,3.92
2023-03-04T10:24:41.897Z,2.83
2023-03-04T10:27:16.907Z,2.83
2023-03-04T10:29:47.436Z,2.28
2023-03-04T10:32:19.309Z,2.13
2023-03-04T10:34:49.123Z,2.55
2023-03-04T10:37:17.226Z,2.88
2023-03-04T10:39:47.337Z,3.15
2023-03-04T10:42:29.946Z,3.28
2023-03-04T10:44:59.805Z,3.00
2023-03-04T10:47:30.144Z,3.33
2023-03-04T10:50:01.396Z,2.85
2023-03-04T10:52:31.375Z,3.22
2023-03-04T10:57:36.259Z,2.70
2023-03-04T11:00:21.473Z,2.67
2023-03-04T11:02:50.617Z,2.75
2023-03-04T11:05:21.817Z,2.20
2023-03-04T11:07:57.266Z,2.83
2023-03-04T11:10:39.740Z,3.03
2023-03-04T11:13:16.322Z,2.80
2023-03-04T11:15:53.172Z,2.50
2023-03-04T11:18:27.180Z,2.40
2023-03-04T11:20:57.579Z,2.40
2023-03-04T11:23:35.596Z,2.40
2023-03-04T11:26:07.525Z,2.33
2023-03-04T11:28:43.292Z,2.85
2023-03-04T11:31:16.741Z,2.30
2023-03-04T11:33:51.408Z,2.25
2023-03-04T11:36:32.646Z,1.95
2023-03-04T11:39:02.930Z,2.50
2023-03-04T11:41:35.705Z,2.20
2023-03-04T11:44:08.859Z,2.25
2023-03-04T11:47:04.346Z,1.98
2023-03-04T11:49:55.042Z,2.45
2023-03-04T11:52:42.167Z,2.22
2023-03-04T11:55:26.568Z,2.22
2023-03-04T11:58:03.419Z,2.17
2023-03-04T12:00:39.993Z,2.20
2023-03-04T12:03:42.073Z,1.92
2023-03-04T12:06:15.289Z,1.90
2023-03-04T12:09:16.086Z,1.88
2023-03-04T12:11:50.420Z,2.20
2023-03-04T12:14:26.789Z,2.33
2023-03-04T12:17:30.576Z,2.22
2023-03-04T12:20:22.880Z,2.03
2023-03-04T12:22:59.932Z,2.17
2023-03-04T12:25:45.562Z,1.80
2023-03-04T12:28:52.402Z,1.45
2023-03-04T12:31:39.447Z,1.95
2023-03-04T12:34:39.284Z,1.58
2023-03-04T12:37:39.406Z,2.10
2023-03-04T12:40:29.047Z,1.50
2023-03-04T12:43:09.957Z,1.30
2023-03-04T12:45:45.949Z,1.98
2023-03-04T12:48:19.604Z,1.50
2023-03-04T12:50:54.522Z,2.20
2023-03-04T12:53:31.225Z,1.50
2023-03-04T12:55:59.866Z,1.50
2023-03-04T12:58:32.146Z,1.55
2023-03-04T13:01:06.669Z,1.85
2023-03-04T13:03:45.345Z,1.90
2023-03-04T13:06:29.610Z,1.60
2023-03-04T13:09:04.708Z,1.73
2023-03-04T13:11:50.999Z,1.90
2023-03-04T13:14:29.603Z,1.40
2023-03-04T13:17:01.738Z,1.42
2023-03-04T13:19:47.103Z,1.65
2023-03-04T13:22:46.310Z,1.83
2023-03-04T13:25:31.954Z,1.55
2023-03-04T13:28:18.658Z,1.48
2023-03-04T13:31:20.653Z,1.40
2023-03-04T13:33:58.690Z,1.33
2023-03-04T13:36:55.944Z,1.60
2023-03-04T13:39:29.931Z,1.58
2023-03-04T13:41:59.275Z,1.42
2023-03-04T13:45:01.457Z,1.30
2023-03-04T13:47:56.580Z,1.30
2023-03-04T13:50:37.398Z,1.33
2023-03-04T13:53:24.108Z,1.80
2023-03-04T13:56:11.428Z,1.63
2023-03-04T13:58:40.050Z,1.60
2023-03-04T14:01:22.169Z,1.55
2023-03-04T14:03:51.726Z,1.50
2023-03-04T14:06:22.340Z,1.13
2023-03-04T14:08:51.803Z,1.38
2023-03-04T14:11:28.185Z,1.33
2023-03-04T14:13:58.546Z,1.23
2023-03-04T14:16:29.952Z,1.33
2023-03-04T14:19:02.336Z,1.42
2023-03-04T14:21:30.901Z,1.50
2023-03-04T14:24:05.774Z,1.40
2023-03-04T14:26:34.666Z,1.40
2023-03-04T14:29:04.024Z,1.35
2023-03-04T14:31:37.146Z,1.17
2023-03-04T14:34:06.918Z,1.27
2023-03-04T14:36:37.887Z,1.40
2023-03-04T14:39:08.524Z,1.50
2023-03-04T14:41:38.882Z,1.30
2023-03-04T14:44:13.602Z,1.17
2023-03-04T14:46:56.919Z,1.15
2023-03-04T14:49:36.159Z,1.38
2023-03-04T14:52:04.634Z,1.33
2023-03-04T14:54:36.274Z,1.30
2023-03-04T14:57:23.954Z,1.35
2023-03-04T14:59:53.276Z,1.70
2023-03-04T15:02:31.536Z,1.30
2023-03-04T15:05:03.391Z,1.10
2023-03-04T15:07:35.021Z,1.40
2023-03-04T15:10:08.604Z,1.20
2023-03-04T15:12:38.620Z,1.50
2023-03-04T15:18:01.354Z,1.35
2023-03-04T15:20:32.107Z,1.35
2023-03-04T15:23:07.298Z,1.17
2023-03-04T15:25:36.631Z,1.10
2023-03-04T15:28:07.734Z,1.30
2023-03-04T15:30:36.301Z,1.55
2023-03-04T15:33:04.785Z,1.00
2023-03-04T15:35:34.846Z,1.35
2023-03-04T15:38:03.331Z,1.23
2023-03-04T15:40:33.233Z,1.20
2023-03-04T15:45:36.024Z,0.90
2023-03-04T15:48:07.964Z,0.80
2023-03-04T15:50:39.706Z,1.17
2023-03-04T15:53:10.118Z,1.05
2023-03-04T15:55:38.708Z,1.10
2023-03-04T15:58:07.951Z,0.90
2023-03-04T16:00:37.246Z,1.25
2023-03-04T16:03:05.672Z,1.20
2023-03-04T16:05:39.114Z,1.00
2023-03-04T16:08:07.753Z,1.38
2023-03-04T16:10:36.223Z,1.20
2023-03-04T16:13:04.606Z,1.13
2023-03-04T16:15:33.112Z,1.05
2023-03-04T16:18:01.533Z,1.05
2023-03-04T16:20:31.467Z,1.30
2023-03-04T16:25:30.333Z,1.08
2023-03-04T16:28:02.699Z,0.90
2023-03-04T16:30:31.200Z,1.10
2023-03-04T16:32:59.448Z,1.20
2023-03-04T16:35:29.174Z,1.25
2023-03-04T16:37:58.648Z,1.90
2023-03-04T16:40:30.347Z,1.85
2023-03-04T16:42:58.851Z,1.20
2023-03-04T16:45:30.269Z,1.08
2023-03-04T16:47:58.481Z,1.05
2023-03-04T16:50:30.051Z,0.80
2023-03-04T16:52:58.299Z,0.98
2023-03-04T16:55:31.496Z,0.50
2023-03-04T16:57:59.676Z,0.50
2023-03-04T17:00:30.020Z,0.50
2023-03-04T17:02:59.568Z,0.63
2023-03-04T17:05:29.957Z,0.82
2023-03-04T17:07:58.613Z,0.95
2023-03-04T17:10:28.358Z,0.50
2023-03-04T17:12:56.567Z,0.68
2023-03-04T17:15:24.964Z,0.60
2023-03-04T17:17:54.329Z,0.70
2023-03-04T17:20:22.895Z,0.50
2023-03-04T17:22:51.177Z,0.73
2023-03-04T17:25:19.732Z,0.40
2023-03-04T17:27:49.253Z,0.40
2023-03-04T17:30:17.904Z,0.65
2023-03-04T17:32:46.509Z,0.43
2023-03-04T17:35:14.900Z,0.40
2023-03-04T17:37:43.321Z,0.60
2023-03-04T17:40:14.225Z,0.73
2023-03-04T17:42:43.433Z,0.40
2023-03-04T17:45:13.107Z,0.23
2023-03-04T17:47:42.134Z,0.73
2023-03-04T17:50:11.647Z,0.40
2023-03-04T17:52:39.797Z,0.68
2023-03-04T17:55:08.732Z,0.47
2023-03-04T17:57:38.333Z,0.20
2023-03-04T18:00:07.795Z,0.30
2023-03-04T18:02:37.335Z,0.30
2023-03-04T18:05:07.511Z,0.20
2023-03-04T18:07:35.977Z,0.30
2023-03-04T18:10:05.069Z,0.40
2023-03-04T18:12:33.333Z,0.20
2023-03-04T18:15:01.439Z,0.17
2023-03-04T18:17:29.591Z,0.10
2023-03-04T18:19:59.067Z,0.17
2023-03-04T18:22:27.245Z,0.10
2023-03-04T18:24:55.343Z,0.10
2023-03-04T18:27:23.497Z,0.10
2023-03-04T18:29:51.625Z,0.30
2023-03-04T18:32:19.798Z,0.10
2023-03-04T18:34:47.967Z,0.10
2023-03-04T18:37:17.485Z,0.00
2023-03-04T18:39:45.603Z,0.20
2023-03-04T18:42:13.755Z,0.10
2023-03-04T18:44:42.068Z,0.00
2023-03-04T18:47:11.775Z,0.10
2023-03-04T18:49:42.111Z,1.10
2023-03-04T18:52:10.270Z,1.15
2023-03-04T18:54:39.806Z,1.13
2023-03-04T18:57:10.655Z,0.60
2023-03-04T18:59:42.768Z,0.82
2023-03-04T19:02:18.248Z,1.10
2023-03-04T19:04:46.795Z,0.65
2023-03-04T19:07:15.019Z,0.90
2023-03-04T19:09:44.616Z,0.90
2023-03-04T19:12:13.258Z,0.50
2023-03-04T19:14:41.541Z,0.90
2023-03-04T19:17:09.774Z,0.70
2023-03-04T19:19:37.985Z,0.60
2023-03-04T19:22:06.948Z,0.60
2023-03-04T19:24:35.334Z,0.70
2023-03-04T19:27:05.478Z,0.80
2023-03-04T19:29:33.761Z,0.60
2023-03-04T19:32:01.913Z,0.77
2023-03-04T19:34:30.455Z,0.95
2023-03-04T19:36:58.561Z,0.80
2023-03-04T19:39:28.179Z,0.60
2023-03-04T19:41:56.308Z,1.10
2023-03-04T19:44:25.842Z,0.80
2023-03-04T19:46:54.108Z,1.00
2023-03-04T19:49:22.250Z,1.23
2023-03-04T19:51:50.428Z,1.10
2023-03-04T19:54:18.631Z,1.13
2023-03-04T19:56:47.077Z,1.10
2023-03-04T19:59:15.260Z,1.00
2023-03-04T20:01:45.594Z,1.15
2023-03-04T20:04:16.127Z,1.27
2023-03-04T20:06:47.000Z,1.40
2023-03-04T20:09:17.306Z,0.90
2023-03-04T20:11:57.068Z,1.48
2023-03-04T20:14:26.494Z,1.70
2023-03-04T20:16:59.179Z,2.10
2023-03-04T20:19:27.340Z,1.70
2023-03-04T20:21:56.416Z,1.60
2023-03-04T20:24:24.717Z,1.70
2023-03-04T20:26:53.428Z,1.42
2023-03-04T20:29:21.574Z,1.45
2023-03-04T20:31:49.703Z,1.27
2023-03-04T20:34:19.272Z,1.27
2023-03-04T20:36:47.390Z,1.25
2023-03-04T20:39:28.083Z,1.33
2023-03-04T20:41:57.040Z,1.20
2023-03-04T20:44:25.788Z,1.13
2023-03-04T20:46:54.298Z,1.35
2023-03-04T20:49:26.099Z,1.50
2023-03-04T20:51:56.056Z,0.80
2023-03-04T20:56:52.310Z,1.25
2023-03-04T20:59:20.806Z,1.20
2023-03-04T21:01:49.675Z,1.67
2023-03-04T21:04:18.739Z,1.63
2023-03-04T21:06:48.496Z,1.50
2023-03-04T21:09:18.096Z,1.08
2023-03-04T21:11:46.513Z,1.40
2023-03-04T21:14:19.357Z,1.50
2023-03-04T21:16:47.910Z,1.90
2023-03-04T21:19:17.600Z,1.52
2023-03-04T21:21:47.942Z,1.33
2023-03-04T21:24:17.663Z,1.33
2023-03-04T21:26:47.724Z,1.40
2023-03-04T21:29:17.155Z,1.10
2023-03-04T21:31:47.818Z,1.67
2023-03-04T21:34:18.306Z,1.40
2023-03-04T21:36:49.705Z,1.65
2023-03-04T21:39:20.135Z,2.03
2023-03-04T21:41:48.617Z,1.10
2023-03-04T21:44:27.972Z,1.67
2023-03-04T21:46:57.141Z,1.45
2023-03-04T21:49:25.424Z,1.55
2023-03-04T21:51:55.008Z,1.67
2023-03-04T21:54:23.551Z,1.45
2023-03-04T21:56:51.720Z,0.93
2023-03-04T21:59:19.836Z,1.20
2023-03-04T22:01:48.084Z,1.30
2023-03-04T22:04:16.232Z,1.58
2023-03-04T22:06:44.361Z,1.50
2023-03-04T22:09:14.534Z,1.30
2023-03-04T22:11:42.756Z,1.20
2023-03-04T22:14:11.833Z,1.38
2023-03-04T22:16:54.082Z,0.90
2023-03-04T22:19:23.245Z,1.63
2023-03-04T22:21:51.600Z,1.20
2023-03-04T22:24:21.406Z,1.45
2023-03-04T22:26:50.207Z,1.42
2023-03-04T22:29:18.340Z,1.10
2023-03-04T22:31:46.689Z,1.50
2023-03-04T22:34:16.830Z,2.15
2023-03-04T22:36:46.955Z,2.33
2023-03-04T22:39:19.322Z,1.20
2023-03-04T22:41:49.049Z,1.30
2023-03-04T22:44:17.254Z,1.25
2023-03-04T22:46:45.427Z,1.40
2023-03-04T22:49:15.226Z,1.60
2023-03-04T22:51:44.949Z,1.60
2023-03-04T22:54:14.608Z,0.88
2023-03-04T22:56:42.808Z,1.17
2023-03-04T22:59:12.776Z,1.20
2023-03-04T23:04:08.977Z,1.13
2023-03-04T23:06:37.835Z,1.40
2023-03-04T23:09:06.686Z,1.27
2023-03-04T23:11:36.591Z,1.05
2023-03-04T23:14:07.254Z,1.10
2023-03-04T23:16:39.480Z,1.30
2023-03-04T23:19:08.298Z,1.10
2023-03-04T23:21:37.814Z,1.13
2023-03-04T23:24:08.277Z,1.00
2023-03-04T23:26:38.830Z,1.05
2023-03-04T23:29:08.940Z,1.20
2023-03-04T23:31:38.596Z,0.90
2023-03-04T23:34:07.099Z,0.90
2023-03-04T23:36:37.795Z,1.20
2023-03-04T23:39:06.776Z,1.20
2023-03-04T23:41:35.418Z,0.88
2023-03-04T23:44:04.383Z,1.02
2023-03-04T23:46:32.579Z,1.02
2023-03-04T23:49:02.152Z,0.60
2023-03-04T23:51:31.436Z,0.98
2023-03-04T23:54:00.529Z,1.20
2023-03-04T23:56:30.961Z,0.90
2023-03-04T23:59:00.546Z,1.02
